Ponca, Arkansas
Current Conditions -  °F | °C
As of 5:53 PM on Sunday 25 Jan 2015 (Local Time) from KHRO Reporting Station
Overcast Overcast  
Wind Chill: 31°   Ceiling: 1900
Heat Index: 40°   Visibility: 10mi
Dew Point: 33°   Wind: 18mph
Humidity: 77%   Direction: 310°NW
Pressure: 29.91"   Gusts: 31mph
Location:  36.02°N, 93.37°W
Report Text: KHRO 252353Z AUTO 31016G27KT 10SM OVC019 04/01 A2991 RMK AO2 PK WND 31030/2304 SLP133 60001 T00440006 10061 20039 51032
Loading
Personal Weather Stations






























Interactive Weather Map New forecast layout! Learn more

10-Day Weather Forecast

Advertisements
Track Severe Weather on mobile